sensor_id;sensor_type;location;lat;lon;timestamp;P1;durP1;ratioP1;P2;durP2;ratioP2
51525;SDS011;37611;51.794;21.590;2024-02-14T00:05:45;16.40;;;8.50;;
51525;SDS011;37611;51.794;21.590;2024-02-14T00:09:47;16.50;;;8.80;;
51525;SDS011;37611;51.794;21.590;2024-02-14T00:13:49;12.50;;;7.30;;
51525;SDS011;37611;51.794;21.590;2024-02-14T00:17:51;14.50;;;8.40;;
51525;SDS011;37611;51.794;21.590;2024-02-14T00:21:53;15.40;;;7.70;;
51525;SDS011;37611;51.794;21.590;2024-02-14T00:25:54;14.80;;;7.90;;
51525;SDS011;37611;51.794;21.590;2024-02-14T00:29:56;15.00;;;8.60;;
51525;SDS011;37611;51.794;21.590;2024-02-14T00:33:58;12.90;;;7.80;;
51525;SDS011;37611;51.794;21.590;2024-02-14T00:38:00;11.90;;;7.70;;
51525;SDS011;37611;51.794;21.590;2024-02-14T00:42:01;13.80;;;8.30;;
51525;SDS011;37611;51.794;21.590;2024-02-14T00:46:03;16.30;;;9.40;;
51525;SDS011;37611;51.794;21.590;2024-02-14T00:50:06;14.90;;;8.40;;
51525;SDS011;37611;51.794;21.590;2024-02-14T00:54:08;15.40;;;9.40;;
51525;SDS011;37611;51.794;21.590;2024-02-14T00:58:10;16.00;;;9.50;;
51525;SDS011;37611;51.794;21.590;2024-02-14T01:02:12;16.50;;;9.30;;
51525;SDS011;37611;51.794;21.590;2024-02-14T01:06:14;17.60;;;8.90;;
51525;SDS011;37611;51.794;21.590;2024-02-14T01:10:16;15.50;;;8.90;;
51525;SDS011;37611;51.794;21.590;2024-02-14T01:14:20;22.30;;;13.10;;
51525;SDS011;37611;51.794;21.590;2024-02-14T01:18:23;26.40;;;17.20;;
51525;SDS011;37611;51.794;21.590;2024-02-14T01:22:25;38.30;;;26.60;;
51525;SDS011;37611;51.794;21.590;2024-02-14T01:26:27;38.60;;;25.80;;
51525;SDS011;37611;51.794;21.590;2024-02-14T01:30:35;35.30;;;23.90;;
51525;SDS011;37611;51.794;21.590;2024-02-14T01:34:40;53.20;;;31.40;;
51525;SDS011;37611;51.794;21.590;2024-02-14T01:38:45;224.90;;;135.40;;
51525;SDS011;37611;51.794;21.590;2024-02-14T01:42:47;39.10;;;25.70;;
51525;SDS011;37611;51.794;21.590;2024-02-14T01:46:49;21.30;;;14.10;;
51525;SDS011;37611;51.794;21.590;2024-02-14T01:50:52;15.40;;;11.60;;
51525;SDS011;37611;51.794;21.590;2024-02-14T01:54:54;17.70;;;11.20;;
51525;SDS011;37611;51.794;21.590;2024-02-14T01:58:56;15.80;;;10.80;;
51525;SDS011;37611;51.794;21.590;2024-02-14T02:02:59;17.70;;;12.90;;
51525;SDS011;37611;51.794;21.590;2024-02-14T02:07:01;18.40;;;11.60;;
51525;SDS011;37611;51.794;21.590;2024-02-14T02:11:03;18.20;;;10.40;;
51525;SDS011;37611;51.794;21.590;2024-02-14T02:15:07;14.80;;;10.30;;
51525;SDS011;37611;51.794;21.590;2024-02-14T02:19:14;15.80;;;10.40;;
51525;SDS011;37611;51.794;21.590;2024-02-14T02:23:17;20.40;;;16.00;;
51525;SDS011;37611;51.794;21.590;2024-02-14T02:27:19;19.90;;;11.40;;
51525;SDS011;37611;51.794;21.590;2024-02-14T02:31:21;19.90;;;11.30;;
51525;SDS011;37611;51.794;21.590;2024-02-14T02:35:24;15.00;;;10.20;;
51525;SDS011;37611;51.794;21.590;2024-02-14T02:39:27;17.40;;;11.40;;
51525;SDS011;37611;51.794;21.590;2024-02-14T02:43:29;17.50;;;11.70;;
51525;SDS011;37611;51.794;21.590;2024-02-14T02:47:31;20.50;;;12.10;;
51525;SDS011;37611;51.794;21.590;2024-02-14T02:51:34;13.60;;;9.30;;
51525;SDS011;37611;51.794;21.590;2024-02-14T02:55:36;14.80;;;10.00;;
51525;SDS011;37611;51.794;21.590;2024-02-14T02:59:38;18.00;;;9.70;;
51525;SDS011;37611;51.794;21.590;2024-02-14T03:03:44;19.20;;;10.10;;
51525;SDS011;37611;51.794;21.590;2024-02-14T03:07:46;13.90;;;9.90;;
51525;SDS011;37611;51.794;21.590;2024-02-14T03:11:49;18.30;;;9.80;;
51525;SDS011;37611;51.794;21.590;2024-02-14T03:15:52;15.80;;;9.90;;
51525;SDS011;37611;51.794;21.590;2024-02-14T03:19:54;14.60;;;8.90;;
51525;SDS011;37611;51.794;21.590;2024-02-14T03:23:58;15.00;;;8.70;;
51525;SDS011;37611;51.794;21.590;2024-02-14T03:28:00;15.30;;;8.60;;
51525;SDS011;37611;51.794;21.590;2024-02-14T03:32:02;18.00;;;8.90;;
51525;SDS011;37611;51.794;21.590;2024-02-14T03:36:05;15.40;;;9.00;;
51525;SDS011;37611;51.794;21.590;2024-02-14T03:40:09;15.30;;;8.70;;
51525;SDS011;37611;51.794;21.590;2024-02-14T03:44:11;16.20;;;9.60;;
51525;SDS011;37611;51.794;21.590;2024-02-14T03:48:13;18.80;;;9.70;;
51525;SDS011;37611;51.794;21.590;2024-02-14T03:52:15;16.30;;;8.80;;
51525;SDS011;37611;51.794;21.590;2024-02-14T03:56:17;12.80;;;8.40;;
51525;SDS011;37611;51.794;21.590;2024-02-14T04:00:19;12.80;;;8.80;;
51525;SDS011;37611;51.794;21.590;2024-02-14T04:04:23;16.60;;;8.60;;
51525;SDS011;37611;51.794;21.590;2024-02-14T04:08:26;15.90;;;9.10;;
51525;SDS011;37611;51.794;21.590;2024-02-14T04:12:28;12.80;;;9.00;;
51525;SDS011;37611;51.794;21.590;2024-02-14T04:16:30;14.20;;;8.80;;
51525;SDS011;37611;51.794;21.590;2024-02-14T04:20:32;15.90;;;8.20;;
51525;SDS011;37611;51.794;21.590;2024-02-14T04:24:34;18.20;;;8.80;;
51525;SDS011;37611;51.794;21.590;2024-02-14T04:28:38;15.60;;;9.60;;
51525;SDS011;37611;51.794;21.590;2024-02-14T04:32:42;13.00;;;8.30;;
51525;SDS011;37611;51.794;21.590;2024-02-14T04:36:45;11.10;;;8.30;;
51525;SDS011;37611;51.794;21.590;2024-02-14T04:40:46;13.20;;;8.80;;
51525;SDS011;37611;51.794;21.590;2024-02-14T04:44:49;13.20;;;9.00;;
51525;SDS011;37611;51.794;21.590;2024-02-14T04:48:51;17.70;;;9.80;;
51525;SDS011;37611;51.794;21.590;2024-02-14T04:52:53;15.00;;;8.70;;
51525;SDS011;37611;51.794;21.590;2024-02-14T04:56:55;16.20;;;8.70;;
51525;SDS011;37611;51.794;21.590;2024-02-14T05:00:57;18.10;;;10.90;;
51525;SDS011;37611;51.794;21.590;2024-02-14T05:04:59;15.80;;;9.20;;
51525;SDS011;37611;51.794;21.590;2024-02-14T05:09:01;18.10;;;9.60;;
51525;SDS011;37611;51.794;21.590;2024-02-14T05:13:03;18.10;;;9.00;;
51525;SDS011;37611;51.794;21.590;2024-02-14T05:17:05;17.60;;;9.70;;
51525;SDS011;37611;51.794;21.590;2024-02-14T05:21:08;21.10;;;9.10;;
51525;SDS011;37611;51.794;21.590;2024-02-14T05:25:10;14.70;;;10.00;;
51525;SDS011;37611;51.794;21.590;2024-02-14T05:29:12;16.80;;;9.50;;
51525;SDS011;37611;51.794;21.590;2024-02-14T05:33:15;16.70;;;9.10;;
51525;SDS011;37611;51.794;21.590;2024-02-14T05:37:17;13.90;;;8.80;;
51525;SDS011;37611;51.794;21.590;2024-02-14T05:41:19;15.00;;;8.70;;
51525;SDS011;37611;51.794;21.590;2024-02-14T05:45:21;14.20;;;9.50;;
51525;SDS011;37611;51.794;21.590;2024-02-14T05:49:23;14.60;;;9.50;;
51525;SDS011;37611;51.794;21.590;2024-02-14T05:53:26;15.50;;;9.40;;
51525;SDS011;37611;51.794;21.590;2024-02-14T05:57:27;15.80;;;9.90;;
51525;SDS011;37611;51.794;21.590;2024-02-14T06:01:30;16.20;;;9.50;;
51525;SDS011;37611;51.794;21.590;2024-02-14T06:05:32;17.80;;;10.20;;
51525;SDS011;37611;51.794;21.590;2024-02-14T06:09:34;15.10;;;10.10;;
51525;SDS011;37611;51.794;21.590;2024-02-14T06:13:36;13.90;;;10.50;;
51525;SDS011;37611;51.794;21.590;2024-02-14T06:17:37;22.00;;;12.30;;
51525;SDS011;37611;51.794;21.590;2024-02-14T06:21:40;16.80;;;10.90;;
51525;SDS011;37611;51.794;21.590;2024-02-14T06:25:42;18.80;;;10.60;;
51525;SDS011;37611;51.794;21.590;2024-02-14T06:29:44;20.50;;;12.10;;
51525;SDS011;37611;51.794;21.590;2024-02-14T06:33:46;17.80;;;11.90;;
51525;SDS011;37611;51.794;21.590;2024-02-14T06:37:48;25.60;;;17.20;;
51525;SDS011;37611;51.794;21.590;2024-02-14T06:41:50;34.60;;;18.80;;
51525;SDS011;37611;51.794;21.590;2024-02-14T06:45:52;32.90;;;19.60;;
51525;SDS011;37611;51.794;21.590;2024-02-14T06:49:54;43.20;;;24.90;;
51525;SDS011;37611;51.794;21.590;2024-02-14T06:53:56;65.30;;;41.50;;
51525;SDS011;37611;51.794;21.590;2024-02-14T06:57:59;134.90;;;96.60;;
51525;SDS011;37611;51.794;21.590;2024-02-14T07:02:01;71.70;;;47.40;;
51525;SDS011;37611;51.794;21.590;2024-02-14T07:06:04;60.60;;;39.30;;
51525;SDS011;37611;51.794;21.590;2024-02-14T07:10:06;51.50;;;34.50;;
51525;SDS011;37611;51.794;21.590;2024-02-14T07:14:08;69.90;;;39.40;;
51525;SDS011;37611;51.794;21.590;2024-02-14T07:18:10;98.60;;;40.60;;
51525;SDS011;37611;51.794;21.590;2024-02-14T07:26:36;49.20;;;26.70;;
51525;SDS011;37611;51.794;21.590;2024-02-14T07:30:38;50.50;;;27.20;;
51525;SDS011;37611;51.794;21.590;2024-02-14T07:34:40;44.00;;;24.10;;
51525;SDS011;37611;51.794;21.590;2024-02-14T07:38:43;39.60;;;24.30;;
51525;SDS011;37611;51.794;21.590;2024-02-14T07:42:44;32.90;;;21.80;;
51525;SDS011;37611;51.794;21.590;2024-02-14T07:46:46;25.60;;;19.10;;
51525;SDS011;37611;51.794;21.590;2024-02-14T07:50:51;24.80;;;18.70;;
51525;SDS011;37611;51.794;21.590;2024-02-14T07:55:00;26.90;;;20.70;;
51525;SDS011;37611;51.794;21.590;2024-02-14T07:59:02;24.70;;;17.20;;
51525;SDS011;37611;51.794;21.590;2024-02-14T08:03:06;24.10;;;18.50;;
51525;SDS011;37611;51.794;21.590;2024-02-14T08:07:29;23.10;;;16.00;;
51525;SDS011;37611;51.794;21.590;2024-02-14T08:21:26;15.50;;;10.20;;
51525;SDS011;37611;51.794;21.590;2024-02-14T08:26:00;16.40;;;9.00;;
51525;SDS011;37611;51.794;21.590;2024-02-14T08:30:26;13.30;;;8.50;;
51525;SDS011;37611;51.794;21.590;2024-02-14T08:34:28;12.80;;;7.50;;
51525;SDS011;37611;51.794;21.590;2024-02-14T08:38:56;9.70;;;6.70;;
51525;SDS011;37611;51.794;21.590;2024-02-14T08:47:29;9.00;;;6.20;;
51525;SDS011;37611;51.794;21.590;2024-02-14T08:52:03;11.00;;;6.00;;
51525;SDS011;37611;51.794;21.590;2024-02-14T09:00:52;7.20;;;4.70;;
51525;SDS011;37611;51.794;21.590;2024-02-14T09:09:40;6.60;;;3.30;;
51525;SDS011;37611;51.794;21.590;2024-02-14T09:14:07;6.40;;;3.90;;
51525;SDS011;37611;51.794;21.590;2024-02-14T09:22:56;8.40;;;4.10;;
51525;SDS011;37611;51.794;21.590;2024-02-14T09:27:12;6.30;;;3.00;;
51525;SDS011;37611;51.794;21.590;2024-02-14T09:31:25;11.00;;;4.70;;
51525;SDS011;37611;51.794;21.590;2024-02-14T09:40:17;16.90;;;10.60;;
51525;SDS011;37611;51.794;21.590;2024-02-14T09:44:44;6.50;;;3.20;;
51525;SDS011;37611;51.794;21.590;2024-02-14T09:48:50;6.50;;;2.70;;
51525;SDS011;37611;51.794;21.590;2024-02-14T09:53:12;6.00;;;2.70;;
51525;SDS011;37611;51.794;21.590;2024-02-14T09:57:24;5.40;;;3.10;;
51525;SDS011;37611;51.794;21.590;2024-02-14T10:01:31;5.00;;;2.40;;
51525;SDS011;37611;51.794;21.590;2024-02-14T10:05:35;9.00;;;2.80;;
51525;SDS011;37611;51.794;21.590;2024-02-14T10:09:40;5.10;;;2.60;;
51525;SDS011;37611;51.794;21.590;2024-02-14T10:14:09;4.90;;;2.80;;
51525;SDS011;37611;51.794;21.590;2024-02-14T10:18:14;8.10;;;4.10;;
51525;SDS011;37611;51.794;21.590;2024-02-14T10:22:34;6.30;;;2.80;;
51525;SDS011;37611;51.794;21.590;2024-02-14T10:26:42;7.90;;;3.50;;
51525;SDS011;37611;51.794;21.590;2024-02-14T10:30:48;5.50;;;2.60;;
51525;SDS011;37611;51.794;21.590;2024-02-14T10:35:00;10.10;;;5.00;;
51525;SDS011;37611;51.794;21.590;2024-02-14T10:39:24;8.20;;;2.80;;
51525;SDS011;37611;51.794;21.590;2024-02-14T10:43:39;5.90;;;3.20;;
51525;SDS011;37611;51.794;21.590;2024-02-14T10:47:42;15.80;;;10.30;;
51525;SDS011;37611;51.794;21.590;2024-02-14T10:51:46;12.20;;;8.60;;
51525;SDS011;37611;51.794;21.590;2024-02-14T10:55:55;8.30;;;5.60;;
51525;SDS011;37611;51.794;21.590;2024-02-14T11:00:14;10.20;;;5.40;;
51525;SDS011;37611;51.794;21.590;2024-02-14T11:04:19;12.50;;;5.10;;
51525;SDS011;37611;51.794;21.590;2024-02-14T11:08:22;8.20;;;4.50;;
51525;SDS011;37611;51.794;21.590;2024-02-14T11:12:34;7.30;;;3.80;;
51525;SDS011;37611;51.794;21.590;2024-02-14T11:16:38;28.30;;;20.00;;
51525;SDS011;37611;51.794;21.590;2024-02-14T11:20:44;6.80;;;4.10;;
51525;SDS011;37611;51.794;21.590;2024-02-14T11:24:52;5.00;;;2.40;;
51525;SDS011;37611;51.794;21.590;2024-02-14T11:29:15;5.70;;;2.80;;
51525;SDS011;37611;51.794;21.590;2024-02-14T11:33:20;5.20;;;2.20;;
51525;SDS011;37611;51.794;21.590;2024-02-14T11:37:29;5.60;;;2.70;;
51525;SDS011;37611;51.794;21.590;2024-02-14T11:41:34;6.20;;;3.00;;
51525;SDS011;37611;51.794;21.590;2024-02-14T11:45:40;8.10;;;5.10;;
51525;SDS011;37611;51.794;21.590;2024-02-14T11:49:43;5.70;;;3.60;;
51525;SDS011;37611;51.794;21.590;2024-02-14T11:53:46;8.20;;;4.20;;
51525;SDS011;37611;51.794;21.590;2024-02-14T11:57:51;6.40;;;2.60;;
51525;SDS011;37611;51.794;21.590;2024-02-14T12:01:56;5.10;;;2.40;;
51525;SDS011;37611;51.794;21.590;2024-02-14T12:06:12;4.00;;;2.30;;
51525;SDS011;37611;51.794;21.590;2024-02-14T12:10:14;6.50;;;3.50;;
51525;SDS011;37611;51.794;21.590;2024-02-14T12:14:18;5.20;;;2.20;;
51525;SDS011;37611;51.794;21.590;2024-02-14T12:18:43;6.90;;;3.10;;
51525;SDS011;37611;51.794;21.590;2024-02-14T12:22:49;15.00;;;8.20;;
51525;SDS011;37611;51.794;21.590;2024-02-14T12:26:52;7.60;;;5.10;;
51525;SDS011;37611;51.794;21.590;2024-02-14T12:30:54;4.60;;;2.30;;
51525;SDS011;37611;51.794;21.590;2024-02-14T12:34:59;5.00;;;2.60;;
51525;SDS011;37611;51.794;21.590;2024-02-14T12:39:02;6.90;;;4.10;;
51525;SDS011;37611;51.794;21.590;2024-02-14T12:43:08;5.90;;;3.60;;
51525;SDS011;37611;51.794;21.590;2024-02-14T12:47:10;9.50;;;5.70;;
51525;SDS011;37611;51.794;21.590;2024-02-14T12:51:22;6.50;;;3.40;;
51525;SDS011;37611;51.794;21.590;2024-02-14T13:01:41;10.20;;;3.00;;
51525;SDS011;37611;51.794;21.590;2024-02-14T13:05:56;4.60;;;2.30;;
51525;SDS011;37611;51.794;21.590;2024-02-14T14:32:28;9.70;;;5.90;;
51525;SDS011;37611;51.794;21.590;2024-02-14T14:36:31;13.40;;;6.70;;
51525;SDS011;37611;51.794;21.590;2024-02-14T15:05:48;50.30;;;34.40;;
51525;SDS011;37611;51.794;21.590;2024-02-14T15:09:51;41.80;;;27.60;;
51525;SDS011;37611;51.794;21.590;2024-02-14T15:13:53;39.90;;;28.00;;
51525;SDS011;37611;51.794;21.590;2024-02-14T15:17:56;48.70;;;29.20;;
51525;SDS011;37611;51.794;21.590;2024-02-14T15:22:20;84.20;;;56.90;;
51525;SDS011;37611;51.794;21.590;2024-02-14T15:26:42;287.80;;;168.60;;
51525;SDS011;37611;51.794;21.590;2024-02-14T15:36:09;111.80;;;57.40;;
51525;SDS011;37611;51.794;21.590;2024-02-14T15:40:19;133.20;;;78.80;;
51525;SDS011;37611;51.794;21.590;2024-02-14T15:44:24;199.20;;;111.50;;
51525;SDS011;37611;51.794;21.590;2024-02-14T15:48:26;119.80;;;77.90;;
51525;SDS011;37611;51.794;21.590;2024-02-14T15:52:30;106.00;;;64.90;;
51525;SDS011;37611;51.794;21.590;2024-02-14T15:56:39;77.70;;;47.60;;
51525;SDS011;37611;51.794;21.590;2024-02-14T17:20:45;62.20;;;45.10;;
51525;SDS011;37611;51.794;21.590;2024-02-14T17:51:58;58.30;;;35.80;;
51525;SDS011;37611;51.794;21.590;2024-02-14T17:57:01;77.90;;;46.60;;
51525;SDS011;37611;51.794;21.590;2024-02-14T18:01:03;63.70;;;38.10;;
51525;SDS011;37611;51.794;21.590;2024-02-14T18:05:05;68.90;;;42.90;;
51525;SDS011;37611;51.794;21.590;2024-02-14T18:09:08;93.50;;;57.10;;
51525;SDS011;37611;51.794;21.590;2024-02-14T18:13:14;102.90;;;66.80;;
51525;SDS011;37611;51.794;21.590;2024-02-14T18:17:15;100.30;;;61.60;;
51525;SDS011;37611;51.794;21.590;2024-02-14T18:21:17;108.60;;;70.70;;
51525;SDS011;37611;51.794;21.590;2024-02-14T18:25:20;87.20;;;53.60;;
51525;SDS011;37611;51.794;21.590;2024-02-14T18:29:22;84.20;;;51.30;;
51525;SDS011;37611;51.794;21.590;2024-02-14T18:33:25;76.50;;;47.90;;
51525;SDS011;37611;51.794;21.590;2024-02-14T18:37:27;85.50;;;48.30;;
51525;SDS011;37611;51.794;21.590;2024-02-14T18:41:29;83.80;;;49.80;;
51525;SDS011;37611;51.794;21.590;2024-02-14T18:45:31;76.30;;;48.20;;
51525;SDS011;37611;51.794;21.590;2024-02-14T18:49:33;76.50;;;47.10;;
51525;SDS011;37611;51.794;21.590;2024-02-14T18:53:34;59.40;;;34.20;;
51525;SDS011;37611;51.794;21.590;2024-02-14T18:57:36;69.90;;;42.20;;
51525;SDS011;37611;51.794;21.590;2024-02-14T19:01:39;54.00;;;32.80;;
51525;SDS011;37611;51.794;21.590;2024-02-14T19:05:44;56.20;;;32.90;;
51525;SDS011;37611;51.794;21.590;2024-02-14T19:09:45;54.30;;;35.00;;
51525;SDS011;37611;51.794;21.590;2024-02-14T19:13:47;50.80;;;32.90;;
51525;SDS011;37611;51.794;21.590;2024-02-14T19:17:49;70.20;;;43.10;;
51525;SDS011;37611;51.794;21.590;2024-02-14T19:21:52;101.50;;;64.00;;
51525;SDS011;37611;51.794;21.590;2024-02-14T19:25:54;82.70;;;55.80;;
51525;SDS011;37611;51.794;21.590;2024-02-14T19:29:56;66.70;;;46.40;;
51525;SDS011;37611;51.794;21.590;2024-02-14T19:34:00;50.10;;;29.30;;
51525;SDS011;37611;51.794;21.590;2024-02-14T19:38:01;47.30;;;32.40;;
51525;SDS011;37611;51.794;21.590;2024-02-14T19:42:04;36.40;;;22.10;;
51525;SDS011;37611;51.794;21.590;2024-02-14T19:46:06;46.30;;;29.00;;
51525;SDS011;37611;51.794;21.590;2024-02-14T19:50:08;33.20;;;19.70;;
51525;SDS011;37611;51.794;21.590;2024-02-14T19:54:12;34.90;;;22.60;;
51525;SDS011;37611;51.794;21.590;2024-02-14T19:58:15;35.60;;;18.60;;
51525;SDS011;37611;51.794;21.590;2024-02-14T20:02:17;32.50;;;18.00;;
51525;SDS011;37611;51.794;21.590;2024-02-14T20:06:18;26.50;;;15.00;;
51525;SDS011;37611;51.794;21.590;2024-02-14T20:10:20;28.10;;;15.20;;
51525;SDS011;37611;51.794;21.590;2024-02-14T20:14:22;43.60;;;21.80;;
51525;SDS011;37611;51.794;21.590;2024-02-14T20:18:23;50.20;;;25.70;;
51525;SDS011;37611;51.794;21.590;2024-02-14T20:22:25;39.60;;;21.70;;
51525;SDS011;37611;51.794;21.590;2024-02-14T20:26:31;35.70;;;21.30;;
51525;SDS011;37611;51.794;21.590;2024-02-14T20:30:34;29.00;;;18.50;;
51525;SDS011;37611;51.794;21.590;2024-02-14T20:34:36;33.00;;;19.50;;
51525;SDS011;37611;51.794;21.590;2024-02-14T20:38:37;37.30;;;22.00;;
51525;SDS011;37611;51.794;21.590;2024-02-14T20:42:40;31.20;;;17.90;;
51525;SDS011;37611;51.794;21.590;2024-02-14T20:46:43;70.90;;;32.50;;
51525;SDS011;37611;51.794;21.590;2024-02-14T20:50:51;52.70;;;26.20;;
51525;SDS011;37611;51.794;21.590;2024-02-14T20:54:56;34.40;;;22.40;;
51525;SDS011;37611;51.794;21.590;2024-02-14T20:58:58;27.00;;;17.20;;
51525;SDS011;37611;51.794;21.590;2024-02-14T21:03:02;28.80;;;14.60;;
51525;SDS011;37611;51.794;21.590;2024-02-14T21:07:04;29.90;;;16.10;;
51525;SDS011;37611;51.794;21.590;2024-02-14T21:11:06;24.90;;;13.80;;
51525;SDS011;37611;51.794;21.590;2024-02-14T21:15:08;25.50;;;14.30;;
51525;SDS011;37611;51.794;21.590;2024-02-14T21:19:10;33.10;;;19.90;;
51525;SDS011;37611;51.794;21.590;2024-02-14T21:23:11;21.10;;;12.10;;
51525;SDS011;37611;51.794;21.590;2024-02-14T21:27:15;21.00;;;13.30;;
51525;SDS011;37611;51.794;21.590;2024-02-14T21:31:16;26.80;;;16.40;;
51525;SDS011;37611;51.794;21.590;2024-02-14T21:35:19;27.60;;;14.70;;
51525;SDS011;37611;51.794;21.590;2024-02-14T21:39:21;29.10;;;15.90;;
51525;SDS011;37611;51.794;21.590;2024-02-14T21:43:23;24.20;;;11.40;;
51525;SDS011;37611;51.794;21.590;2024-02-14T21:47:24;26.40;;;15.00;;
51525;SDS011;37611;51.794;21.590;2024-02-14T21:51:26;37.80;;;20.90;;
51525;SDS011;37611;51.794;21.590;2024-02-14T21:55:29;47.00;;;24.00;;
51525;SDS011;37611;51.794;21.590;2024-02-14T21:59:31;54.00;;;29.30;;
51525;SDS011;37611;51.794;21.590;2024-02-14T22:03:34;50.60;;;23.70;;
51525;SDS011;37611;51.794;21.590;2024-02-14T22:07:35;46.20;;;26.20;;
51525;SDS011;37611;51.794;21.590;2024-02-14T22:11:37;50.40;;;30.30;;
51525;SDS011;37611;51.794;21.590;2024-02-14T22:15:39;27.10;;;17.60;;
51525;SDS011;37611;51.794;21.590;2024-02-14T22:19:41;34.10;;;21.30;;
51525;SDS011;37611;51.794;21.590;2024-02-14T22:23:44;44.80;;;24.40;;
51525;SDS011;37611;51.794;21.590;2024-02-14T22:27:46;32.20;;;19.80;;
51525;SDS011;37611;51.794;21.590;2024-02-14T22:31:48;29.00;;;19.80;;
51525;SDS011;37611;51.794;21.590;2024-02-14T22:35:50;28.80;;;16.50;;
51525;SDS011;37611;51.794;21.590;2024-02-14T22:39:52;28.20;;;16.40;;
51525;SDS011;37611;51.794;21.590;2024-02-14T22:43:53;33.40;;;18.50;;
51525;SDS011;37611;51.794;21.590;2024-02-14T22:47:55;33.00;;;16.20;;
51525;SDS011;37611;51.794;21.590;2024-02-14T22:51:57;33.30;;;18.90;;
51525;SDS011;37611;51.794;21.590;2024-02-14T22:55:59;35.90;;;19.60;;
51525;SDS011;37611;51.794;21.590;2024-02-14T23:00:01;33.40;;;17.50;;
51525;SDS011;37611;51.794;21.590;2024-02-14T23:04:07;29.60;;;18.00;;
51525;SDS011;37611;51.794;21.590;2024-02-14T23:08:09;30.50;;;17.50;;
51525;SDS011;37611;51.794;21.590;2024-02-14T23:12:11;35.70;;;20.70;;
51525;SDS011;37611;51.794;21.590;2024-02-14T23:16:13;27.70;;;17.90;;
51525;SDS011;37611;51.794;21.590;2024-02-14T23:20:15;30.20;;;17.10;;
51525;SDS011;37611;51.794;21.590;2024-02-14T23:24:16;21.80;;;12.80;;
51525;SDS011;37611;51.794;21.590;2024-02-14T23:28:18;25.60;;;15.70;;
51525;SDS011;37611;51.794;21.590;2024-02-14T23:32:20;26.00;;;16.10;;
51525;SDS011;37611;51.794;21.590;2024-02-14T23:36:23;26.10;;;16.80;;
51525;SDS011;37611;51.794;21.590;2024-02-14T23:40:25;25.40;;;17.60;;
51525;SDS011;37611;51.794;21.590;2024-02-14T23:44:26;22.80;;;13.90;;
51525;SDS011;37611;51.794;21.590;2024-02-14T23:48:28;29.30;;;17.00;;
51525;SDS011;37611;51.794;21.590;2024-02-14T23:52:30;28.30;;;17.70;;
51525;SDS011;37611;51.794;21.590;2024-02-14T23:56:33;26.90;;;16.40;;
